< < Back
Terminal Aerodrome Forecast


Current Version              Previous Versions:   1  2  3  4  5  6  7  8  9  

Terminal Aerodrome Forecast

691
FTUS42 KTAE 311700
TAFTLH
TAF
KTLH 311725Z 3118/0118 31010G15KT P6SM SCT050
     FM010500 32012G18KT P6SM BKN040
     FM011400 32015G22KT P6SM SKC=

Latest METAR

139
SAUS80 KWBC 010200 RRG
MTRTLH
METAR KTLH 010153Z 08014KT 10SM FEW070 OVC100 18/07 A2992 RMK AO2 SLP130
T01780067 $


USA.gov is the U.S. government's official web portal to all federal, state and local government web resources and services.